sensor_id;sensor_type;location;lat;lon;timestamp;pressure;altitude;pressure_sealevel;temperature;humidity
78613;BME280;67933;51.060;3.638;2023-04-03T00:01:10;103092.38;;;-1.28;94.03
78613;BME280;67933;51.060;3.638;2023-04-03T00:03:36;103103.69;;;-1.28;94.11
78613;BME280;67933;51.060;3.638;2023-04-03T00:06:03;103115.03;;;-1.26;94.34
78613;BME280;67933;51.060;3.638;2023-04-03T00:08:29;103103.69;;;-1.28;94.39
78613;BME280;67933;51.060;3.638;2023-04-03T00:10:56;103107.97;;;-1.30;94.62
78613;BME280;67933;51.060;3.638;2023-04-03T00:13:22;103100.75;;;-1.40;94.34
78613;BME280;67933;51.060;3.638;2023-04-03T00:15:48;103117.28;;;-1.38;94.28
78613;BME280;67933;51.060;3.638;2023-04-03T00:18:13;103104.03;;;-1.45;94.94
78613;BME280;67933;51.060;3.638;2023-04-03T00:20:39;103107.63;;;-1.42;94.82
78613;BME280;67933;51.060;3.638;2023-04-03T00:23:04;103103.16;;;-1.46;94.30
78613;BME280;67933;51.060;3.638;2023-04-03T00:25:30;103092.63;;;-1.50;94.26
78613;BME280;67933;51.060;3.638;2023-04-03T00:27:55;103104.00;;;-1.47;94.31
78613;BME280;67933;51.060;3.638;2023-04-03T00:30:22;103101.41;;;-1.47;94.52
78613;BME280;67933;51.060;3.638;2023-04-03T00:32:51;103106.75;;;-1.42;94.39
78613;BME280;67933;51.060;3.638;2023-04-03T00:35:18;103101.50;;;-1.44;94.25
78613;BME280;67933;51.060;3.638;2023-04-03T00:37:44;103109.41;;;-1.41;93.96
78613;BME280;67933;51.060;3.638;2023-04-03T00:40:10;103113.84;;;-1.37;93.98
78613;BME280;67933;51.060;3.638;2023-04-03T00:42:37;103109.50;;;-1.36;94.22
78613;BME280;67933;51.060;3.638;2023-04-03T00:47:30;103110.31;;;-1.39;94.09
78613;BME280;67933;51.060;3.638;2023-04-03T00:49:56;103119.09;;;-1.35;93.98
78613;BME280;67933;51.060;3.638;2023-04-03T00:52:25;103122.47;;;-1.38;94.25
78613;BME280;67933;51.060;3.638;2023-04-03T00:54:54;103124.19;;;-1.40;94.34
78613;BME280;67933;51.060;3.638;2023-04-03T00:57:22;103115.34;;;-1.45;94.01
78613;BME280;67933;51.060;3.638;2023-04-03T00:59:55;103104.59;;;-1.57;93.69
78613;BME280;67933;51.060;3.638;2023-04-03T01:02:22;103120.38;;;-1.51;94.23
78613;BME280;67933;51.060;3.638;2023-04-03T01:04:48;103103.56;;;-1.64;93.93
78613;BME280;67933;51.060;3.638;2023-04-03T01:07:19;103133.63;;;-1.43;94.00
78613;BME280;67933;51.060;3.638;2023-04-03T01:09:48;103109.88;;;-1.54;93.88
78613;BME280;67933;51.060;3.638;2023-04-03T01:12:20;103129.19;;;-1.46;94.05
78613;BME280;67933;51.060;3.638;2023-04-03T01:14:48;103124.81;;;-1.48;94.38
78613;BME280;67933;51.060;3.638;2023-04-03T01:17:49;103130.78;;;-1.51;94.28
78613;BME280;67933;51.060;3.638;2023-04-03T01:22:52;103126.19;;;-1.60;93.59
78613;BME280;67933;51.060;3.638;2023-04-03T01:25:21;103130.47;;;-1.62;94.12
78613;BME280;67933;51.060;3.638;2023-04-03T01:27:47;103118.19;;;-1.67;93.70
78613;BME280;67933;51.060;3.638;2023-04-03T01:30:13;103131.22;;;-1.66;94.07
78613;BME280;67933;51.060;3.638;2023-04-03T01:32:41;103133.94;;;-1.63;94.55
78613;BME280;67933;51.060;3.638;2023-04-03T01:35:08;103129.41;;;-1.68;94.48
78613;BME280;67933;51.060;3.638;2023-04-03T01:37:35;103128.31;;;-1.76;93.78
78613;BME280;67933;51.060;3.638;2023-04-03T01:40:01;103130.06;;;-1.75;93.76
78613;BME280;67933;51.060;3.638;2023-04-03T01:42:26;103129.94;;;-1.80;94.14
78613;BME280;67933;51.060;3.638;2023-04-03T01:44:52;103125.66;;;-1.78;94.13
78613;BME280;67933;51.060;3.638;2023-04-03T01:47:17;103123.09;;;-1.76;94.61
78613;BME280;67933;51.060;3.638;2023-04-03T01:49:43;103122.38;;;-1.72;94.81
78613;BME280;67933;51.060;3.638;2023-04-03T01:52:08;103119.84;;;-1.69;94.77
78613;BME280;67933;51.060;3.638;2023-04-03T01:54:33;103130.34;;;-1.66;94.29
78613;BME280;67933;51.060;3.638;2023-04-03T01:57:00;103128.59;;;-1.67;93.87
78613;BME280;67933;51.060;3.638;2023-04-03T01:59:25;103134.63;;;-1.68;94.17
78613;BME280;67933;51.060;3.638;2023-04-03T02:01:51;103123.91;;;-1.79;93.93
78613;BME280;67933;51.060;3.638;2023-04-03T02:04:16;103133.47;;;-1.78;93.95
78613;BME280;67933;51.060;3.638;2023-04-03T02:06:42;103131.66;;;-1.80;94.29
78613;BME280;67933;51.060;3.638;2023-04-03T02:09:07;103132.41;;;-1.84;94.71
78613;BME280;67933;51.060;3.638;2023-04-03T02:11:33;103138.44;;;-1.85;94.42
78613;BME280;67933;51.060;3.638;2023-04-03T02:13:58;103138.44;;;-1.85;94.20
78613;BME280;67933;51.060;3.638;2023-04-03T02:16:23;103130.31;;;-1.96;93.92
78613;BME280;67933;51.060;3.638;2023-04-03T02:18:49;103139.84;;;-1.97;94.34
78613;BME280;67933;51.060;3.638;2023-04-03T02:21:15;103142.44;;;-1.97;94.22
78613;BME280;67933;51.060;3.638;2023-04-03T02:23:41;103155.44;;;-1.97;94.06
78613;BME280;67933;51.060;3.638;2023-04-03T02:26:09;103152.75;;;-2.00;94.01
78613;BME280;67933;51.060;3.638;2023-04-03T02:28:34;103152.91;;;-1.95;93.89
78613;BME280;67933;51.060;3.638;2023-04-03T02:31:00;103150.97;;;-2.01;94.76
78613;BME280;67933;51.060;3.638;2023-04-03T02:33:26;103149.22;;;-2.02;94.58
78613;BME280;67933;51.060;3.638;2023-04-03T02:35:55;103152.59;;;-2.04;94.45
78613;BME280;67933;51.060;3.638;2023-04-03T02:38:21;103149.97;;;-2.06;94.64
78613;BME280;67933;51.060;3.638;2023-04-03T02:40:47;103152.69;;;-2.01;94.71
78613;BME280;67933;51.060;3.638;2023-04-03T02:43:12;103150.91;;;-2.04;95.08
78613;BME280;67933;51.060;3.638;2023-04-03T02:45:37;103151.84;;;-2.00;94.22
78613;BME280;67933;51.060;3.638;2023-04-03T02:48:03;103142.16;;;-2.06;94.46
78613;BME280;67933;51.060;3.638;2023-04-03T02:50:29;103152.66;;;-2.03;94.09
78613;BME280;67933;51.060;3.638;2023-04-03T02:52:54;103155.25;;;-2.03;94.76
78613;BME280;67933;51.060;3.638;2023-04-03T02:55:20;103150.91;;;-2.04;94.67
78613;BME280;67933;51.060;3.638;2023-04-03T02:57:45;103159.53;;;-2.05;94.26
78613;BME280;67933;51.060;3.638;2023-04-03T03:00:11;103145.63;;;-2.05;94.23
78613;BME280;67933;51.060;3.638;2023-04-03T03:02:37;103150.06;;;-2.03;94.16
78613;BME280;67933;51.060;3.638;2023-04-03T03:05:02;103152.66;;;-2.03;94.30
78613;BME280;67933;51.060;3.638;2023-04-03T03:07:28;103154.38;;;-2.03;94.08
78613;BME280;67933;51.060;3.638;2023-04-03T03:09:53;103155.25;;;-2.03;94.20
78613;BME280;67933;51.060;3.638;2023-04-03T03:12:19;103157.88;;;-2.01;94.55
78613;BME280;67933;51.060;3.638;2023-04-03T03:14:47;103164.06;;;-1.98;94.63
78613;BME280;67933;51.060;3.638;2023-04-03T03:17:12;103166.56;;;-2.01;94.72
78613;BME280;67933;51.060;3.638;2023-04-03T03:19:38;103161.19;;;-2.07;94.39
78613;BME280;67933;51.060;3.638;2023-04-03T03:22:03;103162.03;;;-2.08;93.97
78613;BME280;67933;51.060;3.638;2023-04-03T03:24:29;103162.78;;;-2.12;94.62
78613;BME280;67933;51.060;3.638;2023-04-03T03:26:54;103163.59;;;-2.13;94.35
78613;BME280;67933;51.060;3.638;2023-04-03T03:29:20;103162.59;;;-2.18;93.81
78613;BME280;67933;51.060;3.638;2023-04-03T03:31:45;103175.59;;;-2.18;94.37
78613;BME280;67933;51.060;3.638;2023-04-03T03:34:11;103170.47;;;-2.15;94.65
78613;BME280;67933;51.060;3.638;2023-04-03T03:36:37;103145.06;;;-2.23;94.64
78613;BME280;67933;51.060;3.638;2023-04-03T03:39:02;103163.59;;;-2.13;94.57
78613;BME280;67933;51.060;3.638;2023-04-03T03:41:28;103167.03;;;-2.14;94.31
78613;BME280;67933;51.060;3.638;2023-04-03T03:43:53;103175.19;;;-2.03;94.86
78613;BME280;67933;51.060;3.638;2023-04-03T03:46:18;103157.47;;;-2.15;94.43
78613;BME280;67933;51.060;3.638;2023-04-03T03:48:44;103172.41;;;-2.08;94.12
78613;BME280;67933;51.060;3.638;2023-04-03T03:51:10;103160.13;;;-2.13;94.07
78613;BME280;67933;51.060;3.638;2023-04-03T03:53:35;103162.72;;;-2.13;94.78
78613;BME280;67933;51.060;3.638;2023-04-03T03:56:01;103160.06;;;-2.15;94.46
78613;BME280;67933;51.060;3.638;2023-04-03T03:58:27;103172.41;;;-2.08;94.54
78613;BME280;67933;51.060;3.638;2023-04-03T04:00:52;103167.91;;;-2.13;94.35
78613;BME280;67933;51.060;3.638;2023-04-03T04:03:18;103168.94;;;-2.08;94.67
78613;BME280;67933;51.060;3.638;2023-04-03T04:05:44;103177.63;;;-2.08;94.61
78613;BME280;67933;51.060;3.638;2023-04-03T04:08:09;103174.84;;;-2.14;94.66
78613;BME280;67933;51.060;3.638;2023-04-03T04:10:35;103164.31;;;-2.18;94.23
78613;BME280;67933;51.060;3.638;2023-04-03T04:13:02;103181.94;;;-2.08;95.19
78613;BME280;67933;51.060;3.638;2023-04-03T04:15:28;103194.94;;;-2.08;94.70
78613;BME280;67933;51.060;3.638;2023-04-03T04:17:54;103188.03;;;-2.08;95.23
78613;BME280;67933;51.060;3.638;2023-04-03T04:20:19;103186.34;;;-2.06;95.18
78613;BME280;67933;51.060;3.638;2023-04-03T04:22:45;103177.53;;;-2.11;94.82
78613;BME280;67933;51.060;3.638;2023-04-03T04:25:10;103188.03;;;-2.08;94.81
78613;BME280;67933;51.060;3.638;2023-04-03T04:27:36;103174.94;;;-2.11;94.80
78613;BME280;67933;51.060;3.638;2023-04-03T04:30:02;103186.94;;;-2.14;94.42
78613;BME280;67933;51.060;3.638;2023-04-03T04:32:28;103186.16;;;-2.12;94.34
78613;BME280;67933;51.060;3.638;2023-04-03T04:34:54;103183.50;;;-2.13;94.51
78613;BME280;67933;51.060;3.638;2023-04-03T04:37:20;103179.97;;;-2.17;94.86
78613;BME280;67933;51.060;3.638;2023-04-03T04:39:45;103182.56;;;-2.17;94.33
78613;BME280;67933;51.060;3.638;2023-04-03T04:42:11;103175.28;;;-2.27;94.02
78613;BME280;67933;51.060;3.638;2023-04-03T04:44:38;103193.63;;;-2.22;93.92
78613;BME280;67933;51.060;3.638;2023-04-03T04:47:04;103183.16;;;-2.24;94.34
78613;BME280;67933;51.060;3.638;2023-04-03T04:49:30;103192.84;;;-2.20;94.17
78613;BME280;67933;51.060;3.638;2023-04-03T04:51:55;103186.66;;;-2.23;94.39
78613;BME280;67933;51.060;3.638;2023-04-03T04:54:21;103185.00;;;-2.21;94.56
78613;BME280;67933;51.060;3.638;2023-04-03T04:56:46;103180.66;;;-2.21;95.04
78613;BME280;67933;51.060;3.638;2023-04-03T04:59:12;103193.84;;;-2.15;94.63
78613;BME280;67933;51.060;3.638;2023-04-03T05:01:39;103188.59;;;-2.16;94.39
78613;BME280;67933;51.060;3.638;2023-04-03T05:04:04;103180.63;;;-2.22;94.56
78613;BME280;67933;51.060;3.638;2023-04-03T05:06:30;103169.91;;;-2.33;94.52
78613;BME280;67933;51.060;3.638;2023-04-03T05:08:57;103188.41;;;-2.22;94.49
78613;BME280;67933;51.060;3.638;2023-04-03T05:11:23;103185.03;;;-2.20;94.88
78613;BME280;67933;51.060;3.638;2023-04-03T05:13:49;103169.25;;;-2.26;95.20
78613;BME280;67933;51.060;3.638;2023-04-03T05:16:14;103176.16;;;-2.26;93.98
78613;BME280;67933;51.060;3.638;2023-04-03T05:18:40;103172.63;;;-2.28;94.72
78613;BME280;67933;51.060;3.638;2023-04-03T05:21:05;103187.53;;;-2.23;95.16
78613;BME280;67933;51.060;3.638;2023-04-03T05:23:31;103163.81;;;-2.34;94.99
78613;BME280;67933;51.060;3.638;2023-04-03T05:25:56;103172.81;;;-2.22;95.19
78613;BME280;67933;51.060;3.638;2023-04-03T05:28:22;103191.84;;;-2.23;94.48
78613;BME280;67933;51.060;3.638;2023-04-03T05:30:58;103194.19;;;-2.31;94.12
78613;BME280;67933;51.060;3.638;2023-04-03T05:33:24;103199.19;;;-2.37;94.00
78613;BME280;67933;51.060;3.638;2023-04-03T05:35:52;103201.66;;;-2.42;94.62
78613;BME280;67933;51.060;3.638;2023-04-03T05:38:17;103198.00;;;-2.47;94.22
78613;BME280;67933;51.060;3.638;2023-04-03T05:40:43;103189.22;;;-2.50;94.29
78613;BME280;67933;51.060;3.638;2023-04-03T05:43:09;103194.44;;;-2.50;94.78
78613;BME280;67933;51.060;3.638;2023-04-03T05:45:34;103203.38;;;-2.42;94.39
78613;BME280;67933;51.060;3.638;2023-04-03T05:48:00;103208.44;;;-2.45;94.52
78613;BME280;67933;51.060;3.638;2023-04-03T05:50:25;103217.38;;;-2.37;94.31
78613;BME280;67933;51.060;3.638;2023-04-03T05:52:52;103219.22;;;-2.35;95.00
78613;BME280;67933;51.060;3.638;2023-04-03T05:55:20;103213.22;;;-2.32;94.47
78613;BME280;67933;51.060;3.638;2023-04-03T05:57:45;103216.44;;;-2.14;94.61
78613;BME280;67933;51.060;3.638;2023-04-03T06:00:14;103225.88;;;-2.16;94.04
78613;BME280;67933;51.060;3.638;2023-04-03T06:02:41;103227.41;;;-2.22;93.66
78613;BME280;67933;51.060;3.638;2023-04-03T06:05:07;103227.56;;;-2.18;94.31
78613;BME280;67933;51.060;3.638;2023-04-03T06:07:34;103226.00;;;-2.13;94.26
78613;BME280;67933;51.060;3.638;2023-04-03T06:10:00;103210.59;;;-2.07;94.69
78613;BME280;67933;51.060;3.638;2023-04-03T06:12:26;103224.88;;;-1.94;95.12
78613;BME280;67933;51.060;3.638;2023-04-03T06:14:53;103228.63;;;-1.84;95.23
78613;BME280;67933;51.060;3.638;2023-04-03T06:17:19;103225.50;;;-1.74;95.52
78613;BME280;67933;51.060;3.638;2023-04-03T06:19:45;103222.41;;;-1.63;95.45
78613;BME280;67933;51.060;3.638;2023-04-03T06:22:11;103216.56;;;-1.54;95.92
78613;BME280;67933;51.060;3.638;2023-04-03T06:24:37;103214.25;;;-1.45;95.20
78613;BME280;67933;51.060;3.638;2023-04-03T06:27:03;103229.31;;;-1.35;95.33
78613;BME280;67933;51.060;3.638;2023-04-03T06:29:28;103217.97;;;-1.37;95.18
78613;BME280;67933;51.060;3.638;2023-04-03T06:31:54;103215.53;;;-1.31;95.31
78613;BME280;67933;51.060;3.638;2023-04-03T06:34:20;103227.25;;;-1.17;95.20
78613;BME280;67933;51.060;3.638;2023-04-03T06:36:46;103223.78;;;-1.16;94.86
78613;BME280;67933;51.060;3.638;2023-04-03T06:39:17;103214.50;;;-1.06;95.26
78613;BME280;67933;51.060;3.638;2023-04-03T06:41:43;103219.31;;;-0.90;95.39
78613;BME280;67933;51.060;3.638;2023-04-03T06:44:09;103224.94;;;-0.74;95.14
78613;BME280;67933;51.060;3.638;2023-04-03T06:46:37;103219.09;;;-0.66;95.48
78613;BME280;67933;51.060;3.638;2023-04-03T06:49:03;103232.44;;;-0.54;95.22
78613;BME280;67933;51.060;3.638;2023-04-03T06:51:29;103223.03;;;-0.49;95.54
78613;BME280;67933;51.060;3.638;2023-04-03T06:53:57;103230.59;;;-0.25;95.27
78613;BME280;67933;51.060;3.638;2023-04-03T06:56:23;103233.91;;;0.04;95.60
78613;BME280;67933;51.060;3.638;2023-04-03T06:58:49;103224.78;;;0.21;94.92
78613;BME280;67933;51.060;3.638;2023-04-03T07:01:16;103229.41;;;0.34;95.10
78613;BME280;67933;51.060;3.638;2023-04-03T07:03:43;103226.16;;;0.45;94.43
78613;BME280;67933;51.060;3.638;2023-04-03T07:06:11;103227.28;;;0.56;94.23
78613;BME280;67933;51.060;3.638;2023-04-03T07:08:37;103211.81;;;0.65;94.30
78613;BME280;67933;51.060;3.638;2023-04-03T07:11:05;103237.09;;;1.08;93.50
78613;BME280;67933;51.060;3.638;2023-04-03T07:13:31;103222.13;;;1.46;93.64
78613;BME280;67933;51.060;3.638;2023-04-03T07:15:58;103228.72;;;2.93;91.20
78613;BME280;67933;51.060;3.638;2023-04-03T07:18:24;103219.63;;;4.48;87.96
78613;BME280;67933;51.060;3.638;2023-04-03T07:20:50;103220.06;;;5.88;85.52
78613;BME280;67933;51.060;3.638;2023-04-03T07:23:16;103212.81;;;6.88;81.71
78613;BME280;67933;51.060;3.638;2023-04-03T07:25:49;103214.06;;;7.68;80.05
78613;BME280;67933;51.060;3.638;2023-04-03T07:28:16;103215.13;;;8.47;77.44
78613;BME280;67933;51.060;3.638;2023-04-03T07:30:46;103217.44;;;8.76;73.45
78613;BME280;67933;51.060;3.638;2023-04-03T07:33:13;103207.13;;;9.22;73.28
78613;BME280;67933;51.060;3.638;2023-04-03T07:35:40;103223.72;;;9.91;73.04
78613;BME280;67933;51.060;3.638;2023-04-03T07:38:06;103216.69;;;9.89;69.83
78613;BME280;67933;51.060;3.638;2023-04-03T07:40:31;103213.53;;;10.21;69.83
78613;BME280;67933;51.060;3.638;2023-04-03T07:42:57;103215.03;;;10.34;66.91
78613;BME280;67933;51.060;3.638;2023-04-03T07:45:23;103220.59;;;11.08;66.57
78613;BME280;67933;51.060;3.638;2023-04-03T07:47:50;103223.56;;;11.34;61.29
78613;BME280;67933;51.060;3.638;2023-04-03T07:50:15;103224.59;;;11.66;63.70
78613;BME280;67933;51.060;3.638;2023-04-03T07:52:42;103223.88;;;11.59;56.64
78613;BME280;67933;51.060;3.638;2023-04-03T07:55:07;103236.38;;;11.54;57.41
78613;BME280;67933;51.060;3.638;2023-04-03T07:57:33;103222.53;;;11.40;54.97
78613;BME280;67933;51.060;3.638;2023-04-03T07:59:58;103233.78;;;11.52;54.00
78613;BME280;67933;51.060;3.638;2023-04-03T08:02:24;103239.88;;;11.56;53.03
78613;BME280;67933;51.060;3.638;2023-04-03T08:04:50;103230.59;;;11.74;51.85
78613;BME280;67933;51.060;3.638;2023-04-03T08:07:15;103228.09;;;11.68;52.04
78613;BME280;67933;51.060;3.638;2023-04-03T08:09:41;103226.19;;;12.10;54.74
78613;BME280;67933;51.060;3.638;2023-04-03T08:12:06;103228.84;;;12.10;53.73
78613;BME280;67933;51.060;3.638;2023-04-03T08:14:32;103236.28;;;12.31;51.39
78613;BME280;67933;51.060;3.638;2023-04-03T08:16:59;103223.16;;;12.23;50.52
78613;BME280;67933;51.060;3.638;2023-04-03T08:19:26;103232.72;;;12.94;51.74
78613;BME280;67933;51.060;3.638;2023-04-03T08:21:53;103222.66;;;13.03;49.24
78613;BME280;67933;51.060;3.638;2023-04-03T08:24:19;103212.09;;;13.58;48.67
78613;BME280;67933;51.060;3.638;2023-04-03T08:26:45;103211.19;;;13.59;45.84
78613;BME280;67933;51.060;3.638;2023-04-03T08:29:10;103221.88;;;14.11;47.89
78613;BME280;67933;51.060;3.638;2023-04-03T08:31:35;103214.16;;;14.29;46.09
78613;BME280;67933;51.060;3.638;2023-04-03T08:34:01;103212.34;;;14.55;41.42
78613;BME280;67933;51.060;3.638;2023-04-03T08:36:28;103209.94;;;14.71;41.45
78613;BME280;67933;51.060;3.638;2023-04-03T08:38:55;103226.44;;;14.33;41.74
78613;BME280;67933;51.060;3.638;2023-04-03T08:41:40;103228.53;;;14.24;40.23
78613;BME280;67933;51.060;3.638;2023-04-03T08:49:31;103233.28;;;14.66;39.58
78613;BME280;67933;51.060;3.638;2023-04-03T08:51:59;103225.81;;;14.76;41.66
78613;BME280;67933;51.060;3.638;2023-04-03T08:54:37;103233.06;;;14.95;43.42
78613;BME280;67933;51.060;3.638;2023-04-03T08:57:06;103225.97;;;14.94;44.39
78613;BME280;67933;51.060;3.638;2023-04-03T08:59:36;103214.94;;;14.80;43.26
78613;BME280;67933;51.060;3.638;2023-04-03T09:02:33;103224.13;;;14.48;43.93
78613;BME280;67933;51.060;3.638;2023-04-03T09:04:55;103226.28;;;15.10;43.50
78613;BME280;67933;51.060;3.638;2023-04-03T09:08:01;103218.38;;;15.30;41.51
78613;BME280;67933;51.060;3.638;2023-04-03T09:10:33;103218.34;;;15.09;40.35
78613;BME280;67933;51.060;3.638;2023-04-03T09:13:05;103214.81;;;15.53;37.29
78613;BME280;67933;51.060;3.638;2023-04-03T09:15:33;103200.66;;;15.05;38.83
78613;BME280;67933;51.060;3.638;2023-04-03T09:18:04;103207.25;;;15.18;41.97
78613;BME280;67933;51.060;3.638;2023-04-03T09:20:48;103212.31;;;15.25;39.62
78613;BME280;67933;51.060;3.638;2023-04-03T09:24:06;103202.72;;;15.87;35.40
78613;BME280;67933;51.060;3.638;2023-04-03T09:26:43;103205.78;;;15.98;37.66
78613;BME280;67933;51.060;3.638;2023-04-03T09:29:15;103199.78;;;16.13;37.00
78613;BME280;67933;51.060;3.638;2023-04-03T09:31:44;103216.25;;;16.24;38.84
78613;BME280;67933;51.060;3.638;2023-04-03T09:34:26;103211.03;;;16.01;37.17
78613;BME280;67933;51.060;3.638;2023-04-03T09:37:00;103201.34;;;15.33;36.19
78613;BME280;67933;51.060;3.638;2023-04-03T09:39:32;103196.28;;;15.47;33.57
78613;BME280;67933;51.060;3.638;2023-04-03T09:42:03;103202.31;;;15.30;32.02
78613;BME280;67933;51.060;3.638;2023-04-03T09:46:57;103198.03;;;15.48;35.30
78613;BME280;67933;51.060;3.638;2023-04-03T09:49:23;103203.16;;;15.76;31.70
78613;BME280;67933;51.060;3.638;2023-04-03T09:51:48;103190.50;;;15.36;31.79
78613;BME280;67933;51.060;3.638;2023-04-03T09:54:31;103196.00;;;15.76;35.79
78613;BME280;67933;51.060;3.638;2023-04-03T09:57:01;103197.75;;;15.77;36.54
78613;BME280;67933;51.060;3.638;2023-04-03T09:59:29;103201.84;;;16.27;36.58
78613;BME280;67933;51.060;3.638;2023-04-03T10:02:04;103196.16;;;16.54;33.62
78613;BME280;67933;51.060;3.638;2023-04-03T10:04:43;103193.84;;;16.86;35.08
78613;BME280;67933;51.060;3.638;2023-04-03T10:07:32;103194.03;;;16.63;34.50
78613;BME280;67933;51.060;3.638;2023-04-03T10:10:10;103192.72;;;16.71;35.26
78613;BME280;67933;51.060;3.638;2023-04-03T10:12:40;103180.47;;;16.66;37.24
78613;BME280;67933;51.060;3.638;2023-04-03T10:15:15;103192.38;;;16.79;35.83
78613;BME280;67933;51.060;3.638;2023-04-03T10:17:57;103183.66;;;17.30;34.44
78613;BME280;67933;51.060;3.638;2023-04-03T10:38:57;103166.66;;;17.84;33.42
78613;BME280;67933;51.060;3.638;2023-04-03T10:46:39;103158.50;;;18.70;28.88
78613;BME280;67933;51.060;3.638;2023-04-03T10:49:18;103167.06;;;18.44;31.68
78613;BME280;67933;51.060;3.638;2023-04-03T10:51:48;103161.63;;;18.78;33.18
78613;BME280;67933;51.060;3.638;2023-04-03T10:54:34;103154.91;;;19.18;30.68
78613;BME280;67933;51.060;3.638;2023-04-03T10:57:04;103153.28;;;18.67;30.12
78613;BME280;67933;51.060;3.638;2023-04-03T10:59:33;103145.66;;;18.75;30.20
78613;BME280;67933;51.060;3.638;2023-04-03T11:02:06;103142.03;;;18.76;30.59
78613;BME280;67933;51.060;3.638;2023-04-03T11:04:36;103142.81;;;18.45;30.27
78613;BME280;67933;51.060;3.638;2023-04-03T11:07:14;103143.41;;;18.83;30.85
78613;BME280;67933;51.060;3.638;2023-04-03T11:09:44;103143.59;;;18.80;28.83
78613;BME280;67933;51.060;3.638;2023-04-03T11:12:25;103139.59;;;18.72;29.52
78613;BME280;67933;51.060;3.638;2023-04-03T11:14:52;103127.56;;;18.95;29.44
78613;BME280;67933;51.060;3.638;2023-04-03T11:20:01;103122.38;;;19.53;29.85
78613;BME280;67933;51.060;3.638;2023-04-03T11:25:25;103118.75;;;19.98;29.21
78613;BME280;67933;51.060;3.638;2023-04-03T11:27:58;103122.50;;;18.40;23.45
78613;BME280;67933;51.060;3.638;2023-04-03T11:33:17;103105.56;;;19.34;28.10
78613;BME280;67933;51.060;3.638;2023-04-03T11:35:49;103094.34;;;19.41;26.63
78613;BME280;67933;51.060;3.638;2023-04-03T11:38:33;103088.38;;;19.05;25.92
78613;BME280;67933;51.060;3.638;2023-04-03T11:41:02;103086.97;;;19.29;21.76
78613;BME280;67933;51.060;3.638;2023-04-03T11:43:31;103097.66;;;17.50;26.30
78613;BME280;67933;51.060;3.638;2023-04-03T11:46:07;103077.44;;;17.79;25.97
78613;BME280;67933;51.060;3.638;2023-04-03T11:53:43;103070.88;;;18.66;26.91
78613;BME280;67933;51.060;3.638;2023-04-03T12:01:47;103076.63;;;19.37;26.45
78613;BME280;67933;51.060;3.638;2023-04-03T12:04:14;103066.94;;;19.65;27.04
78613;BME280;67933;51.060;3.638;2023-04-03T12:12:33;103056.19;;;19.93;26.76
78613;BME280;67933;51.060;3.638;2023-04-03T12:17:43;103043.31;;;20.55;25.22
78613;BME280;67933;51.060;3.638;2023-04-03T12:20:54;103038.69;;;20.14;25.38
78613;BME280;67933;51.060;3.638;2023-04-03T12:25:51;103029.97;;;19.52;25.96
78613;BME280;67933;51.060;3.638;2023-04-03T12:28:17;103031.59;;;18.79;25.37
78613;BME280;67933;51.060;3.638;2023-04-03T12:30:43;103039.47;;;18.82;27.54
78613;BME280;67933;51.060;3.638;2023-04-03T12:33:19;103047.34;;;19.01;27.99
78613;BME280;67933;51.060;3.638;2023-04-03T12:35:58;103043.97;;;18.98;27.54
78613;BME280;67933;51.060;3.638;2023-04-03T12:38:46;103048.97;;;18.58;26.72
78613;BME280;67933;51.060;3.638;2023-04-03T12:41:30;103040.63;;;19.24;28.49
78613;BME280;67933;51.060;3.638;2023-04-03T12:44:09;103046.78;;;19.86;26.19
78613;BME280;67933;51.060;3.638;2023-04-03T12:46:44;103048.69;;;19.98;24.86
78613;BME280;67933;51.060;3.638;2023-04-03T12:51:54;103034.72;;;19.33;25.71
78613;BME280;67933;51.060;3.638;2023-04-03T12:54:23;103029.91;;;19.38;22.36
78613;BME280;67933;51.060;3.638;2023-04-03T12:56:52;103027.34;;;19.21;26.99
78613;BME280;67933;51.060;3.638;2023-04-03T12:59:33;103021.38;;;19.16;23.69
78613;BME280;67933;51.060;3.638;2023-04-03T13:02:00;103023.66;;;19.08;25.24
78613;BME280;67933;51.060;3.638;2023-04-03T13:04:30;103017.94;;;18.51;27.53
78613;BME280;67933;51.060;3.638;2023-04-03T13:06:56;103022.38;;;18.83;24.72
78613;BME280;67933;51.060;3.638;2023-04-03T13:11:56;103009.97;;;18.97;25.52
78613;BME280;67933;51.060;3.638;2023-04-03T13:14:24;103002.28;;;19.50;26.08
78613;BME280;67933;51.060;3.638;2023-04-03T13:19:27;103002.88;;;18.33;24.83
78613;BME280;67933;51.060;3.638;2023-04-03T13:22:00;102991.41;;;18.45;25.29
78613;BME280;67933;51.060;3.638;2023-04-03T13:24:28;103007.78;;;18.25;25.26
78613;BME280;67933;51.060;3.638;2023-04-03T13:26:55;103007.50;;;18.14;22.74
78613;BME280;67933;51.060;3.638;2023-04-03T13:29:33;102999.09;;;17.37;24.56
78613;BME280;67933;51.060;3.638;2023-04-03T13:31:59;103011.88;;;17.49;26.51
78613;BME280;67933;51.060;3.638;2023-04-03T13:34:27;103005.25;;;17.56;25.77
78613;BME280;67933;51.060;3.638;2023-04-03T13:39:28;103000.38;;;19.07;27.06
78613;BME280;67933;51.060;3.638;2023-04-03T13:42:02;102996.28;;;18.86;21.63
78613;BME280;67933;51.060;3.638;2023-04-03T13:44:39;102996.19;;;18.40;22.34
78613;BME280;67933;51.060;3.638;2023-04-03T13:47:20;102999.41;;;17.98;24.35
78613;BME280;67933;51.060;3.638;2023-04-03T13:52:52;102988.59;;;17.99;23.70
78613;BME280;67933;51.060;3.638;2023-04-03T13:58:25;102990.47;;;17.97;22.96
78613;BME280;67933;51.060;3.638;2023-04-03T14:01:19;102985.88;;;18.48;25.45
78613;BME280;67933;51.060;3.638;2023-04-03T14:03:56;102978.03;;;18.43;24.51
78613;BME280;67933;51.060;3.638;2023-04-03T14:06:22;102970.78;;;18.45;23.83
78613;BME280;67933;51.060;3.638;2023-04-03T14:08:48;102970.09;;;18.11;21.48
78613;BME280;67933;51.060;3.638;2023-04-03T14:11:27;102968.00;;;18.31;22.00
78613;BME280;67933;51.060;3.638;2023-04-03T14:13:55;102971.88;;;17.61;27.26
78613;BME280;67933;51.060;3.638;2023-04-03T14:16:27;102965.66;;;17.26;25.34
78613;BME280;67933;51.060;3.638;2023-04-03T14:18:55;102969.50;;;17.38;26.66
78613;BME280;67933;51.060;3.638;2023-04-03T14:21:20;102970.38;;;16.87;25.00